Time;durP1;ratioP1;P1;durP2;ratioP2;P2;SDS_P1;SDS_P2;PMS_P1;PMS_P2;Temp;Humidity;BMP_temperature;BMP_pressure;BME280_temperature;BME280_humidity;BME280_pressure;Samples;Min_cycle;Max_cycle;Signal;HPM_P1;HPM_P2
2023/03/30 00:01:15;;;;;;;;;15.25;13.00;;;;;13.54;73.20;99409.66;5056721;28;45451;-79
2023/03/30 00:03:42;;;;;;;;;13.50;13.50;;;;;13.50;74.13;99409.84;5059228;28;45724;-79
2023/03/30 00:06:09;;;;;;;;;17.25;16.00;;;;;13.48;73.63;99409.94;5053689;28;45453;-78
2023/03/30 00:08:35;;;;;;;;;18.50;16.50;;;;;13.44;73.91;99412.78;5050872;28;45368;-79
2023/03/30 00:11:02;;;;;;;;;17.25;11.75;;;;;13.44;75.20;99407.47;5052684;28;45477;-79
2023/03/30 00:13:29;;;;;;;;;16.25;15.00;;;;;13.40;73.74;99414.75;5052397;28;46390;-79
2023/03/30 00:15:55;;;;;;;;;16.75;14.75;;;;;13.37;75.56;99406.94;5047159;28;45523;-79
2023/03/30 00:18:20;;;;;;;;;17.50;15.50;;;;;13.35;75.75;99418.53;5065837;28;45472;-79
2023/03/30 00:20:50;;;;;;;;;16.50;13.75;;;;;13.32;75.71;99413.38;5052425;28;45501;-78
2023/03/30 00:23:16;;;;;;;;;20.75;17.00;;;;;13.27;75.51;99410.91;5064659;28;45546;-79
2023/03/30 00:25:42;;;;;;;;;16.00;14.75;;;;;13.22;76.48;99399.72;5060309;28;45456;-79
2023/03/30 00:28:07;;;;;;;;;15.00;15.00;;;;;13.18;75.12;99398.97;5070617;27;45409;-79
2023/03/30 00:30:33;;;;;;;;;16.50;15.25;;;;;13.17;75.26;99391.97;5043509;28;45289;-79
2023/03/30 00:32:58;;;;;;;;;16.50;15.00;;;;;13.18;76.03;99398.13;5065819;28;46222;-79
2023/03/30 00:35:25;;;;;;;;;14.75;13.75;;;;;13.18;76.51;99384.88;5052470;28;45787;-79
2023/03/30 00:37:50;;;;;;;;;14.75;13.50;;;;;13.18;75.71;99393.69;5053236;28;45428;-79
2023/03/30 00:40:20;;;;;;;;;12.25;11.75;;;;;13.21;76.21;99372.38;5052698;28;45443;-79
2023/03/30 00:42:46;;;;;;;;;13.25;11.25;;;;;13.23;76.60;99385.53;5055845;28;46764;-79
2023/03/30 00:45:19;;;;;;;;;16.25;13.75;;;;;13.23;76.56;99397.00;5066416;27;45399;-79
2023/03/30 00:47:51;;;;;;;;;15.25;12.50;;;;;13.24;76.49;99395.16;5053092;28;45473;-79
2023/03/30 00:50:20;;;;;;;;;16.25;14.50;;;;;13.24;76.00;99379.28;5052900;28;45489;-80
2023/03/30 00:52:51;;;;;;;;;13.50;13.50;;;;;13.23;75.47;99386.41;5053244;28;45387;-78
2023/03/30 00:55:19;;;;;;;;;16.00;13.50;;;;;13.22;76.09;99368.78;5055074;28;45519;-78
2023/03/30 00:57:45;;;;;;;;;14.25;13.75;;;;;13.22;75.22;99373.22;5052984;28;45535;-78
2023/03/30 01:00:11;;;;;;;;;14.25;12.25;;;;;13.23;76.07;99370.50;5052331;28;45267;-78
2023/03/30 01:02:42;;;;;;;;;19.25;14.00;;;;;13.25;75.75;99376.56;5056313;28;46388;-78
2023/03/30 01:05:09;;;;;;;;;14.75;13.75;;;;;13.23;76.05;99373.16;5072300;28;45642;-77
2023/03/30 01:07:37;;;;;;;;;16.50;13.00;;;;;13.23;75.31;99365.22;5059204;28;45409;-78
2023/03/30 01:10:04;;;;;;;;;14.50;14.50;;;;;13.25;74.75;99359.81;5059580;28;46168;-78
2023/03/30 01:12:29;;;;;;;;;16.75;11.75;;;;;13.24;75.61;99363.41;5048893;28;47316;-78
2023/03/30 01:14:55;;;;;;;;;13.00;13.00;;;;;13.25;76.65;99370.41;5056024;28;45448;-77
2023/03/30 01:17:46;;;;;;;;;16.25;13.25;;;;;13.21;77.47;99360.94;5053299;28;45438;-78
2023/03/30 01:20:51;;;;;;;;;15.75;12.00;;;;;13.18;77.77;99363.72;5044364;28;45511;-78
2023/03/30 01:23:32;;;;;;;;;11.75;11.00;;;;;13.17;76.23;99351.41;5051571;28;46311;-77
2023/03/30 01:26:45;;;;;;;;;16.25;13.00;;;;;13.15;76.55;99348.81;5049415;28;45338;-77
2023/03/30 01:29:17;;;;;;;;;14.00;11.75;;;;;13.12;75.99;99356.00;5019046;28;45659;-78
2023/03/30 01:31:42;;;;;;;;;15.00;11.50;;;;;13.10;77.37;99337.53;5002417;28;45569;-78
2023/03/30 01:34:27;;;;;;;;;13.75;9.00;;;;;13.11;77.23;99341.91;5045288;28;46122;-78
2023/03/30 01:37:30;;;;;;;;;11.50;10.75;;;;;13.10;77.11;99334.03;5049397;28;45901;-78
2023/03/30 01:40:08;;;;;;;;;10.50;10.25;;;;;13.08;76.82;99341.19;5054204;28;45433;-78
2023/03/30 01:42:56;;;;;;;;;12.25;9.75;;;;;13.08;77.55;99328.81;5055690;28;45357;-78
2023/03/30 01:45:50;;;;;;;;;12.00;8.75;;;;;13.10;76.22;99329.59;5055719;28;46324;-78
2023/03/30 01:48:45;;;;;;;;;14.75;10.25;;;;;13.14;76.17;99330.31;5059387;28;45432;-78
2023/03/30 01:51:21;;;;;;;;;13.00;10.50;;;;;13.15;74.89;99330.28;5051113;28;45498;-78
2023/03/30 01:53:55;;;;;;;;;14.50;12.00;;;;;13.15;75.98;99311.75;5055891;28;45552;-78
2023/03/30 01:56:50;;;;;;;;;9.75;9.50;;;;;13.15;75.44;99327.66;5051890;28;45715;-78
2023/03/30 01:59:23;;;;;;;;;9.25;8.75;;;;;13.16;75.26;99317.91;5049852;28;45388;-78
2023/03/30 02:01:52;;;;;;;;;10.50;9.50;;;;;13.16;76.27;99310.84;5047347;28;45405;-78
2023/03/30 02:04:21;;;;;;;;;11.25;9.00;;;;;13.15;76.50;99305.59;5054561;28;45531;-78
2023/03/30 02:06:59;;;;;;;;;12.00;11.25;;;;;13.13;75.54;99313.59;5045501;28;45440;-78
2023/03/30 02:09:26;;;;;;;;;10.00;8.00;;;;;13.14;75.97;99288.84;5060614;28;45528;-78
2023/03/30 02:11:52;;;;;;;;;12.25;10.00;;;;;13.15;75.45;99297.66;5071557;28;45560;-78
2023/03/30 02:14:24;;;;;;;;;8.75;8.75;;;;;13.13;76.28;99276.53;5061648;28;45487;-78
2023/03/30 02:16:56;;;;;;;;;13.50;9.50;;;;;13.11;75.70;99278.38;5053517;28;47784;-78
2023/03/30 02:19:22;;;;;;;;;8.00;8.00;;;;;13.12;75.29;99287.19;5041662;28;45494;-78
2023/03/30 02:21:49;;;;;;;;;9.25;9.00;;;;;13.12;75.46;99266.88;5051866;28;45513;-77
2023/03/30 02:24:20;;;;;;;;;11.00;9.75;;;;;13.14;75.36;99275.59;5064179;28;45530;-78
2023/03/30 02:26:47;;;;;;;;;9.75;7.00;;;;;13.14;74.80;99290.63;5045718;28;45912;-78
2023/03/30 02:29:14;;;;;;;;;8.40;8.40;;;;;13.13;75.11;99273.88;5055373;28;45357;-78
2023/03/30 02:31:41;;;;;;;;;11.75;7.50;;;;;13.13;74.88;99275.66;5055251;28;45605;-78
2023/03/30 02:34:17;;;;;;;;;10.00;9.25;;;;;13.11;74.96;99274.88;5052006;28;45536;-78
2023/03/30 02:37:01;;;;;;;;;7.00;7.00;;;;;13.06;74.62;99267.19;5052997;28;47733;-78
2023/03/30 02:39:35;;;;;;;;;7.60;7.60;;;;;13.02;74.52;99273.53;5047641;28;45385;-77
2023/03/30 02:42:12;;;;;;;;;9.00;8.00;;;;;12.99;75.29;99278.13;5045074;28;45536;-78
2023/03/30 02:44:59;;;;;;;;;7.00;6.25;;;;;12.97;75.28;99253.50;5052414;28;45700;-78
2023/03/30 02:47:31;;;;;;;;;7.00;7.00;;;;;12.93;75.73;99258.09;5055257;28;47295;-78
2023/03/30 02:50:08;;;;;;;;;10.75;8.00;;;;;12.89;74.21;99273.28;5055963;28;45523;-78
2023/03/30 02:52:52;;;;;;;;;8.75;7.00;;;;;12.89;76.08;99267.13;5054928;28;45429;-78
2023/03/30 02:55:33;;;;;;;;;8.00;7.25;;;;;12.85;74.78;99270.84;5056624;28;45540;-78
2023/03/30 02:58:15;;;;;;;;;9.50;6.50;;;;;12.82;75.06;99270.97;5050468;28;47030;-78
2023/03/30 03:00:49;;;;;;;;;3.00;2.75;;;;;12.85;75.84;99239.09;5051773;28;45314;-78
2023/03/30 03:03:26;;;;;;;;;7.50;5.75;;;;;12.83;74.94;99265.63;5049279;28;45413;-78
2023/03/30 03:05:52;;;;;;;;;8.00;6.50;;;;;12.86;74.72;99254.88;5048997;28;45393;-78
2023/03/30 03:08:22;;;;;;;;;7.75;7.50;;;;;12.89;75.04;99256.53;5046115;28;46051;-78
2023/03/30 03:10:50;;;;;;;;;9.75;7.00;;;;;12.91;74.66;99263.44;5053526;28;45425;-78
2023/03/30 03:13:17;;;;;;;;;10.25;8.75;;;;;12.94;74.46;99258.00;5052508;28;45471;-78
2023/03/30 03:15:44;;;;;;;;;11.00;10.75;;;;;12.98;75.31;99239.34;5066693;27;45389;-78
2023/03/30 03:18:11;;;;;;;;;16.00;9.50;;;;;12.97;75.69;99266.75;5059022;28;46434;-78
2023/03/30 03:20:37;;;;;;;;;14.50;11.00;;;;;12.97;75.29;99257.03;5050564;28;45611;-77
2023/03/30 03:23:03;;;;;;;;;15.00;13.00;;;;;13.01;75.62;99257.72;5060403;27;45375;-78
2023/03/30 03:25:29;;;;;;;;;9.50;9.00;;;;;13.03;74.61;99245.28;5060374;27;45534;-78
2023/03/30 03:27:54;;;;;;;;;22.25;17.50;;;;;13.05;75.72;99238.13;5054510;28;45965;-78
2023/03/30 03:30:20;;;;;;;;;13.25;10.00;;;;;13.02;75.33;99255.03;5054238;28;45466;-78
2023/03/30 03:32:45;;;;;;;;;13.25;13.00;;;;;13.03;75.81;99259.38;5044830;28;45300;-78
2023/03/30 03:35:11;;;;;;;;;15.25;14.25;;;;;13.00;75.61;99248.94;5052910;28;45357;-77
2023/03/30 03:37:36;;;;;;;;;10.25;7.25;;;;;12.97;74.72;99249.06;5054955;28;47067;-77
2023/03/30 03:40:04;;;;;;;;;12.75;11.50;;;;;12.96;74.95;99244.72;5053350;28;45320;-78
2023/03/30 03:42:30;;;;;;;;;8.75;7.75;;;;;12.94;74.24;99255.38;5059040;28;45420;-78
2023/03/30 03:44:55;;;;;;;;;9.75;5.00;;;;;12.91;73.62;99252.00;5053911;28;45530;-78
2023/03/30 03:47:21;;;;;;;;;4.50;4.50;;;;;12.87;72.91;99248.66;5050099;28;45507;-78
2023/03/30 03:49:47;;;;;;;;;6.75;5.75;;;;;12.84;72.94;99248.81;5041772;28;45456;-78
2023/03/30 03:52:13;;;;;;;;;6.00;5.00;;;;;12.86;72.72;99240.81;5042707;28;45484;-78
2023/03/30 03:54:38;;;;;;;;;7.00;5.00;;;;;12.86;72.62;99259.31;5053755;28;45456;-78
2023/03/30 03:57:05;;;;;;;;;5.75;4.50;;;;;12.86;72.92;99244.31;5049743;28;46304;-78
2023/03/30 03:59:30;;;;;;;;;6.80;5.80;;;;;12.86;72.06;99238.16;5069536;28;45407;-77
2023/03/30 04:01:55;;;;;;;;;6.00;4.75;;;;;12.86;72.12;99257.53;5041989;28;45482;-78
2023/03/30 04:04:21;;;;;;;;;7.00;5.00;;;;;12.89;72.02;99253.91;5053985;28;45313;-78
2023/03/30 04:06:47;;;;;;;;;6.50;5.00;;;;;12.89;72.32;99238.00;5053729;28;46148;-77
2023/03/30 04:09:12;;;;;;;;;8.25;6.25;;;;;12.87;72.11;99238.09;5052438;28;46065;-77
2023/03/30 04:11:37;;;;;;;;;7.25;5.25;;;;;12.84;71.78;99240.88;5052140;28;45346;-77
2023/03/30 04:14:03;;;;;;;;;7.25;5.50;;;;;12.84;71.74;99240.88;5039969;28;45546;-78
2023/03/30 04:16:28;;;;;;;;;6.50;3.50;;;;;12.84;72.22;99234.72;5045212;28;46531;-78
2023/03/30 04:18:53;;;;;;;;;12.00;11.50;;;;;12.86;73.38;99227.56;5053575;28;45431;-77
2023/03/30 04:21:20;;;;;;;;;6.75;5.50;;;;;12.89;72.67;99246.81;5053455;28;45341;-77
2023/03/30 04:23:47;;;;;;;;;4.00;4.00;;;;;12.92;71.47;99241.34;5057637;28;45612;-78
2023/03/30 04:26:14;;;;;;;;;5.00;3.25;;;;;12.90;70.98;99240.56;5047527;27;46209;-78
2023/03/30 04:28:40;;;;;;;;;5.00;5.00;;;;;12.91;71.26;99260.81;5052353;28;46158;-78
2023/03/30 04:31:09;;;;;;;;;3.25;2.75;;;;;12.94;70.54;99214.81;5053581;28;45352;-78
2023/03/30 04:33:43;;;;;;;;;5.00;4.00;;;;;12.92;70.48;99230.75;5048609;28;45341;-78
2023/03/30 04:36:11;;;;;;;;;5.75;4.50;;;;;12.95;70.22;99227.13;5053893;28;46680;-77
2023/03/30 04:38:37;;;;;;;;;5.00;4.00;;;;;13.00;70.54;99214.53;5068831;28;45442;-78
2023/03/30 04:41:04;;;;;;;;;12.00;8.50;;;;;13.03;71.21;99211.75;5045249;28;45563;-78
2023/03/30 04:43:30;;;;;;;;;12.00;11.00;;;;;13.06;73.27;99221.31;5058229;28;45651;-77
2023/03/30 04:45:55;;;;;;;;;5.75;5.50;;;;;13.01;72.39;99229.47;5056397;28;45635;-78
2023/03/30 04:48:22;;;;;;;;;4.75;3.50;;;;;12.99;70.39;99204.88;5056084;28;45428;-78
2023/03/30 04:50:50;;;;;;;;;5.00;5.00;;;;;12.98;70.02;99200.50;5061116;28;45421;-77
2023/03/30 04:53:17;;;;;;;;;3.25;3.00;;;;;12.99;69.66;99189.00;5066961;28;45462;-77
2023/03/30 04:55:47;;;;;;;;;9.75;6.00;;;;;13.01;69.63;99197.72;5050095;28;47368;-77
2023/03/30 04:58:13;;;;;;;;;4.60;4.00;;;;;13.04;69.10;99220.53;5050461;28;45443;-78
2023/03/30 05:00:40;;;;;;;;;6.00;4.50;;;;;13.01;69.17;99196.88;5052159;28;45317;-77
2023/03/30 05:03:05;;;;;;;;;6.25;5.25;;;;;12.96;68.97;99210.31;5046072;28;45384;-78
2023/03/30 05:05:31;;;;;;;;;4.00;4.00;;;;;12.94;68.57;99191.84;5053834;28;46891;-78
2023/03/30 05:07:57;;;;;;;;;4.00;4.00;;;;;12.92;68.70;99193.72;5052652;28;45399;-78
2023/03/30 05:10:22;;;;;;;;;6.00;5.00;;;;;12.93;68.82;99203.38;5055134;28;45541;-78
2023/03/30 05:12:47;;;;;;;;;4.75;4.75;;;;;12.94;68.46;99196.28;5064502;28;45533;-77
2023/03/30 05:15:14;;;;;;;;;4.75;3.75;;;;;12.93;68.65;99202.50;5055235;28;46145;-77
2023/03/30 05:17:39;;;;;;;;;7.75;5.25;;;;;12.91;67.99;99205.22;5056346;28;45375;-77
2023/03/30 05:20:07;;;;;;;;;4.75;3.25;;;;;12.90;67.71;99203.50;5053595;28;46033;-75
2023/03/30 05:22:33;;;;;;;;;6.00;4.00;;;;;12.94;67.71;99218.31;5048226;28;45777;-76
2023/03/30 05:24:59;;;;;;;;;3.80;3.00;;;;;12.97;66.50;99193.50;5050963;28;46591;-76
2023/03/30 05:27:24;;;;;;;;;3.75;3.50;;;;;12.93;65.88;99208.66;5048710;28;45429;-76
2023/03/30 05:29:50;;;;;;;;;3.00;3.00;;;;;12.94;66.38;99204.22;5055722;28;45542;-72
2023/03/30 05:32:16;;;;;;;;;5.00;4.00;;;;;12.98;66.16;99207.59;5055800;28;45451;-72
2023/03/30 05:34:41;;;;;;;;;5.50;4.00;;;;;12.99;67.28;99215.47;5055194;28;45915;-72
2023/03/30 05:37:06;;;;;;;;;8.75;8.00;;;;;13.03;66.50;99219.69;5055425;28;45527;-72
2023/03/30 05:39:32;;;;;;;;;13.00;9.00;;;;;13.11;68.32;99235.19;5062144;28;45397;-73
2023/03/30 05:41:57;;;;;;;;;11.00;10.00;;;;;13.11;71.28;99219.28;5055712;28;45525;-73
2023/03/30 05:44:23;;;;;;;;;3.00;3.00;;;;;13.07;66.86;99229.16;5055572;28;45416;-73
2023/03/30 05:46:48;;;;;;;;;6.00;3.00;;;;;13.11;66.90;99235.19;5054759;28;45391;-73
2023/03/30 05:49:14;;;;;;;;;3.00;3.00;;;;;13.15;64.60;99220.91;5055510;28;45321;-73
2023/03/30 05:51:39;;;;;;;;;4.25;3.00;;;;;13.21;62.73;99233.84;5045478;28;45565;-73
2023/03/30 05:54:05;;;;;;;;;3.00;2.00;;;;;13.26;63.45;99237.09;5043191;28;45949;-73
2023/03/30 05:56:31;;;;;;;;;6.00;4.00;;;;;13.33;62.97;99224.44;5049060;28;45488;-73
2023/03/30 05:58:56;;;;;;;;;5.00;3.75;;;;;13.37;61.61;99231.28;5049630;28;45451;-73
2023/03/30 06:01:21;;;;;;;;;5.75;4.00;;;;;13.38;61.91;99238.31;5051896;28;45710;-73
2023/03/30 06:03:47;;;;;;;;;6.00;2.25;;;;;13.36;61.14;99250.75;5054103;28;46006;-73
2023/03/30 06:06:13;;;;;;;;;3.75;3.75;;;;;13.35;61.52;99247.25;5054003;28;45306;-73
2023/03/30 06:08:40;;;;;;;;;4.00;3.75;;;;;13.37;60.88;99248.03;5051564;28;45343;-73
2023/03/30 06:11:06;;;;;;;;;4.00;3.50;;;;;13.36;61.14;99262.22;5050084;28;45492;-73
2023/03/30 06:13:32;;;;;;;;;7.00;4.00;;;;;13.36;60.77;99272.81;5053573;28;46245;-73
2023/03/30 06:15:57;;;;;;;;;4.00;3.00;;;;;13.38;60.16;99264.78;5049775;28;45517;-73
2023/03/30 06:18:23;;;;;;;;;2.00;2.00;;;;;13.39;60.58;99277.09;5040069;28;45716;-73
2023/03/30 06:20:49;;;;;;;;;4.25;4.00;;;;;13.41;60.48;99296.41;5052161;28;45384;-73
2023/03/30 06:23:15;;;;;;;;;3.50;3.50;;;;;13.44;60.51;99291.81;5065006;28;47338;-73
2023/03/30 06:25:44;;;;;;;;;4.75;3.50;;;;;13.44;59.55;99286.50;5053607;28;45488;-73
2023/03/30 06:28:09;;;;;;;;;3.25;2.25;;;;;13.49;58.62;99311.00;5054872;28;45457;-73
2023/03/30 06:30:35;;;;;;;;;4.00;2.00;;;;;13.54;58.44;99311.63;5054001;28;45354;-73
2023/03/30 06:33:00;;;;;;;;;2.00;2.00;;;;;13.58;56.47;99342.31;5054198;28;45484;-73
2023/03/30 06:35:26;;;;;;;;;3.50;3.00;;;;;13.61;56.59;99323.63;5053820;28;45403;-73
2023/03/30 06:37:51;;;;;;;;;5.00;4.00;;;;;13.61;56.29;99336.88;5052665;28;45401;-73
2023/03/30 06:40:17;;;;;;;;;3.50;1.75;;;;;13.58;56.73;99365.28;5052865;28;45383;-73
2023/03/30 06:42:43;;;;;;;;;1.50;1.50;;;;;13.55;56.36;99345.13;5053304;28;45526;-73
2023/03/30 06:45:10;;;;;;;;;3.25;2.50;;;;;13.57;56.23;99345.91;5053467;28;45417;-74
2023/03/30 06:47:36;;;;;;;;;4.00;3.00;;;;;13.55;55.84;99347.78;5054490;28;45408;-74
2023/03/30 06:50:02;;;;;;;;;3.50;1.00;;;;;13.60;55.99;99351.06;5053117;28;45511;-75
2023/03/30 06:52:28;;;;;;;;;1.00;1.00;;;;;13.65;55.61;99360.56;5044520;28;47140;-74
2023/03/30 06:54:53;;;;;;;;;2.00;1.00;;;;;13.71;54.93;99395.59;5052525;28;45352;-74
2023/03/30 06:57:19;;;;;;;;;1.00;1.00;;;;;13.79;54.97;99397.84;5044483;28;45385;-74
2023/03/30 06:59:44;;;;;;;;;4.00;3.25;;;;;13.79;54.39;99366.06;5053301;28;45395;-76
2023/03/30 07:02:12;;;;;;;;;2.25;2.00;;;;;13.87;54.72;99369.19;5049191;28;45421;-77
2023/03/30 07:04:38;;;;;;;;;3.20;3.20;;;;;13.86;54.93;99402.78;5052711;28;45411;-77
2023/03/30 07:07:03;;;;;;;;;4.00;3.00;;;;;13.84;55.38;99364.91;5064236;28;45327;-77
2023/03/30 07:09:29;;;;;;;;;4.00;3.00;;;;;13.83;55.25;99416.19;5053818;28;45511;-77
2023/03/30 07:11:54;;;;;;;;;2.00;1.50;;;;;13.83;55.61;99394.97;5054626;28;46405;-77
2023/03/30 07:14:20;;;;;;;;;3.75;2.75;;;;;13.86;55.95;99401.94;5054833;28;45479;-77
2023/03/30 07:16:47;;;;;;;;;5.75;3.00;;;;;13.90;56.41;99399.06;5051582;28;45546;-77
2023/03/30 07:19:12;;;;;;;;;3.75;1.00;;;;;13.94;56.96;99408.56;5053287;28;45446;-77
2023/03/30 07:21:38;;;;;;;;;4.25;3.25;;;;;14.01;56.71;99413.56;5054941;28;45388;-77
2023/03/30 07:24:03;;;;;;;;;6.00;6.00;;;;;14.07;57.04;99415.94;5053865;28;45336;-77
2023/03/30 07:26:29;;;;;;;;;2.00;1.00;;;;;14.20;56.89;99431.16;5053730;28;45448;-77
2023/03/30 07:28:55;;;;;;;;;6.00;2.00;;;;;14.27;56.42;99437.84;5054326;28;45475;-77
2023/03/30 07:31:23;;;;;;;;;3.50;3.00;;;;;14.31;55.72;99447.38;5051365;28;45548;-77
2023/03/30 07:33:49;;;;;;;;;3.60;2.60;;;;;14.31;55.55;99439.41;5058446;28;45500;-76
2023/03/30 07:36:15;;;;;;;;;2.00;2.00;;;;;14.32;56.09;99454.38;5053479;28;45435;-77
2023/03/30 07:38:40;;;;;;;;;3.25;2.00;;;;;14.31;56.31;99439.41;5044155;28;45383;-77
2023/03/30 07:41:11;;;;;;;;;2.25;2.25;;;;;14.25;56.20;99454.75;5051650;28;46160;-77
2023/03/30 07:43:39;;;;;;;;;3.20;3.20;;;;;14.22;56.25;99439.88;5070742;27;45482;-77
2023/03/30 07:46:05;;;;;;;;;3.00;3.00;;;;;14.18;56.41;99454.22;5055396;28;45423;-77
2023/03/30 07:48:30;;;;;;;;;2.25;2.00;;;;;14.15;56.66;99448.22;5055385;28;45492;-77
2023/03/30 07:51:07;;;;;;;;;2.00;2.00;;;;;14.15;56.46;99449.06;5055057;28;46283;-77
2023/03/30 07:53:32;;;;;;;;;3.40;2.00;;;;;14.18;56.63;99463.97;5053404;28;45467;-77
2023/03/30 07:55:58;;;;;;;;;2.25;2.00;;;;;14.18;56.66;99485.19;5050657;28;45452;-77
2023/03/30 07:58:24;;;;;;;;;3.00;2.50;;;;;14.19;57.13;99455.09;5054152;28;45508;-77
2023/03/30 08:00:49;;;;;;;;;3.50;2.50;;;;;14.22;57.13;99462.91;5057272;28;45668;-77
2023/03/30 08:03:15;;;;;;;;;1.50;1.50;;;;;14.24;56.98;99471.63;5046121;28;45354;-78
2023/03/30 08:05:41;;;;;;;;;2.00;2.00;;;;;14.24;56.90;99485.72;5052410;28;45398;-78
2023/03/30 08:08:06;;;;;;;;;4.00;2.00;;;;;14.25;57.18;99468.88;5069422;28;45678;-79
2023/03/30 08:10:32;;;;;;;;;1.50;1.50;;;;;14.28;56.90;99476.69;5058941;28;45614;-76
2023/03/30 08:12:58;;;;;;;;;2.50;2.50;;;;;14.32;56.96;99499.47;5060821;28;45648;-78
2023/03/30 08:15:23;;;;;;;;;3.00;3.00;;;;;14.33;57.05;99500.34;5057753;28;45425;-77
2023/03/30 08:17:48;;;;;;;;;8.00;5.00;;;;;14.37;56.94;99493.09;5059029;28;45647;-77
2023/03/30 08:20:14;;;;;;;;;3.00;2.00;;;;;14.42;57.45;99491.94;5065380;28;46622;-77
2023/03/30 08:22:40;;;;;;;;;7.20;5.00;;;;;14.51;57.80;99496.81;5060629;28;45390;-77
2023/03/30 08:25:06;;;;;;;;;4.00;3.00;;;;;14.59;57.03;99491.97;5059897;28;45626;-78
2023/03/30 08:27:31;;;;;;;;;3.50;3.50;;;;;14.65;56.54;99507.59;5059872;28;45463;-79
2023/03/30 08:29:57;;;;;;;;;3.75;3.00;;;;;14.69;56.23;99512.75;5063034;28;45486;-78
2023/03/30 08:32:22;;;;;;;;;4.75;3.75;;;;;14.69;55.97;99502.97;5052588;28;45394;-78
2023/03/30 08:34:48;;;;;;;;;5.25;3.00;;;;;14.70;56.38;99496.75;5056477;28;45614;-76
2023/03/30 08:37:13;;;;;;;;;4.00;3.00;;;;;14.73;56.22;99488.63;5070137;28;45340;-79
2023/03/30 08:39:38;;;;;;;;;2.00;2.00;;;;;14.78;56.10;99486.56;5058202;28;45650;-76
2023/03/30 08:42:39;;;;;;;;;4.00;2.00;;;;;14.81;56.15;99506.81;5057669;28;45370;-77
2023/03/30 08:45:09;;;;;;;;;7.25;4.75;;;;;14.80;55.85;99508.59;5061353;28;45634;-77
2023/03/30 08:47:42;;;;;;;;;4.75;3.25;;;;;14.82;55.94;99512.03;5062601;28;45307;-77
2023/03/30 08:50:12;;;;;;;;;4.40;3.00;;;;;14.82;55.84;99498.75;5081754;27;47298;-78
2023/03/30 08:52:40;;;;;;;;;3.40;1.60;;;;;14.82;55.45;99500.56;5077051;27;45584;-78
2023/03/30 08:55:20;;;;;;;;;5.60;3.00;;;;;14.82;55.83;99505.88;5056098;28;45412;-78
2023/03/30 08:58:08;;;;;;;;;4.50;4.00;;;;;14.84;55.21;99517.28;5066949;28;45455;-78
2023/03/30 09:00:47;;;;;;;;;3.00;3.00;;;;;14.83;55.82;99520.84;5048737;28;46543;-77
2023/03/30 09:03:21;;;;;;;;;6.60;5.00;;;;;14.81;55.67;99526.25;5059137;28;45321;-77
2023/03/30 09:06:18;;;;;;;;;3.00;3.00;;;;;14.83;55.88;99526.16;5054845;28;45683;-77
2023/03/30 09:08:45;;;;;;;;;4.50;3.50;;;;;14.84;55.63;99517.28;5049601;28;45618;-77
2023/03/30 09:11:17;;;;;;;;;4.00;4.00;;;;;14.90;55.67;99533.75;5055787;28;45420;-78
2023/03/30 09:13:45;;;;;;;;;3.20;2.00;;;;;14.93;55.32;99536.22;5059971;28;45406;-77
2023/03/30 09:16:13;;;;;;;;;2.40;2.40;;;;;14.99;54.88;99551.00;5058689;28;45380;-77
2023/03/30 09:18:41;;;;;;;;;5.75;3.75;;;;;15.04;54.67;99553.41;5059844;28;45525;-78
2023/03/30 09:21:12;;;;;;;;;5.00;4.00;;;;;15.06;54.90;99532.97;5056744;28;47954;-77
2023/03/30 09:23:38;;;;;;;;;3.00;2.80;;;;;15.05;54.61;99545.38;5057410;28;45363;-77
2023/03/30 09:26:27;;;;;;;;;2.60;2.60;;;;;15.09;55.15;99532.78;5057666;28;45430;-77
2023/03/30 09:29:20;;;;;;;;;3.75;3.75;;;;;15.12;54.64;99540.59;5070355;27;45457;-78
2023/03/30 09:31:52;;;;;;;;;2.25;2.00;;;;;15.15;54.66;99540.44;5056929;28;45499;-78
2023/03/30 09:34:33;;;;;;;;;2.60;2.00;;;;;15.24;55.21;99524.91;5056180;28;45363;-78
2023/03/30 09:37:12;;;;;;;;;6.75;4.00;;;;;15.45;54.41;99535.31;5051850;28;45479;-77
2023/03/30 09:39:40;;;;;;;;;4.50;3.50;;;;;15.58;54.66;99525.78;5055625;28;45399;-77
2023/03/30 09:42:17;;;;;;;;;4.40;4.00;;;;;15.73;54.17;99535.59;5053157;28;45489;-77
2023/03/30 09:44:47;;;;;;;;;2.80;2.80;;;;;15.79;53.32;99540.53;5060170;28;45451;-78
2023/03/30 09:47:32;;;;;;;;;3.50;3.50;;;;;15.75;52.71;99543.47;5046673;28;45416;-79
2023/03/30 09:50:06;;;;;;;;;3.75;3.00;;;;;15.71;53.71;99548.09;5052160;28;45524;-78
2023/03/30 09:52:38;;;;;;;;;4.50;4.00;;;;;15.71;53.70;99532.16;5056064;28;45432;-78
2023/03/30 09:55:28;;;;;;;;;4.00;2.20;;;;;15.75;53.78;99538.16;5056190;28;45429;-78
2023/03/30 09:58:11;;;;;;;;;4.40;1.00;;;;;15.83;53.89;99535.94;5055352;28;45410;-78
2023/03/30 10:00:38;;;;;;;;;3.50;3.50;;;;;15.96;53.23;99540.47;5048496;28;45539;-78
2023/03/30 10:03:06;;;;;;;;;4.20;3.20;;;;;16.06;52.55;99551.47;5049164;28;45676;-77
2023/03/30 10:05:34;;;;;;;;;3.40;3.40;;;;;16.06;53.34;99530.22;5051517;28;45469;-78
2023/03/30 10:08:02;;;;;;;;;3.00;3.00;;;;;16.07;53.75;99531.91;5047122;28;45391;-78
2023/03/30 10:10:35;;;;;;;;;2.20;2.20;;;;;16.09;53.04;99526.53;5053944;28;45525;-78
2023/03/30 10:13:10;;;;;;;;;5.00;4.40;;;;;16.13;53.15;99525.38;5055556;28;46408;-77
2023/03/30 10:15:43;;;;;;;;;5.00;3.20;;;;;16.16;53.29;99528.72;5054338;28;45424;-76
2023/03/30 10:18:28;;;;;;;;;4.50;3.25;;;;;16.20;52.97;99522.31;5044307;28;45407;-77
2023/03/30 10:21:05;;;;;;;;;4.80;4.80;;;;;16.22;52.96;99530.19;5054288;28;45303;-77
2023/03/30 10:23:40;;;;;;;;;4.20;4.20;;;;;16.25;53.50;99522.06;5051956;28;46220;-78
2023/03/30 10:26:12;;;;;;;;;5.40;3.80;;;;;16.28;53.18;99524.50;5054889;28;45486;-78
2023/03/30 10:28:37;;;;;;;;;5.25;4.50;;;;;16.35;53.58;99518.75;5053869;28;45445;-79
2023/03/30 10:31:13;;;;;;;;;3.50;2.00;;;;;16.41;53.19;99506.91;5071822;27;45431;-79
2023/03/30 10:33:41;;;;;;;;;5.50;4.75;;;;;16.50;53.12;99500.19;5051611;28;46392;-78
2023/03/30 10:36:08;;;;;;;;;3.40;3.40;;;;;16.63;53.00;99510.06;5064784;28;45456;-78
2023/03/30 10:38:35;;;;;;;;;4.00;3.75;;;;;16.73;51.76;99505.94;5065146;27;45526;-78
2023/03/30 10:41:08;;;;;;;;;2.00;1.50;;;;;16.82;51.41;99528.47;5072054;27;45483;-78
2023/03/30 10:43:35;;;;;;;;;5.60;2.80;;;;;16.83;52.05;99508.88;5043409;28;46603;-78
2023/03/30 10:46:14;;;;;;;;;4.00;3.80;;;;;16.84;51.69;99515.06;5048985;28;45478;-79
2023/03/30 10:49:05;;;;;;;;;5.25;4.25;;;;;16.86;52.17;99522.03;5047049;28;45399;-77
2023/03/30 10:51:55;;;;;;;;;6.25;5.00;;;;;16.81;52.37;99502.78;5038167;28;45917;-78
2023/03/30 10:54:48;;;;;;;;;4.00;3.60;;;;;16.81;52.70;99504.59;5046551;28;45439;-78
2023/03/30 10:57:21;;;;;;;;;5.00;5.00;;;;;16.88;52.34;99497.97;5051568;28;45398;-78
2023/03/30 10:59:52;;;;;;;;;6.00;5.75;;;;;16.95;52.13;99489.50;5059333;28;45660;-79
2023/03/30 11:02:39;;;;;;;;;3.50;3.50;;;;;17.09;52.37;99510.00;5066766;27;45645;-78
2023/03/30 11:05:15;;;;;;;;;2.80;1.80;;;;;17.22;51.65;99502.13;5060684;28;45468;-79
2023/03/30 11:07:49;;;;;;;;;3.60;3.60;;;;;17.28;51.42;99502.59;5045091;28;45397;-79
2023/03/30 11:10:28;;;;;;;;;5.60;4.00;;;;;17.33;51.29;99479.19;5053349;28;45549;-79
2023/03/30 11:13:16;;;;;;;;;5.00;5.00;;;;;17.48;51.29;99484.50;5050144;28;45676;-79
2023/03/30 11:15:48;;;;;;;;;4.00;4.00;;;;;17.72;51.22;99494.53;5049543;28;46422;-78
2023/03/30 11:18:34;;;;;;;;;5.60;4.20;;;;;18.06;51.20;99495.03;5054118;28;45506;-78
2023/03/30 11:21:04;;;;;;;;;7.25;5.50;;;;;18.44;49.96;99496.03;5070497;27;45431;-78
2023/03/30 11:23:46;;;;;;;;;7.50;6.00;;;;;18.71;49.62;99492.53;5054205;28;45450;-78
2023/03/30 11:26:38;;;;;;;;;5.00;4.00;;;;;18.90;49.20;99492.13;5048335;28;45361;-78
2023/03/30 11:29:40;;;;;;;;;2.40;2.00;;;;;19.01;49.43;99487.75;5059361;28;45426;-79
2023/03/30 11:32:56;;;;;;;;;5.00;4.60;;;;;18.93;48.90;99474.09;5052292;28;45480;-79
2023/03/30 11:35:31;;;;;;;;;5.00;4.00;;;;;18.89;48.83;99474.38;5025286;28;45468;-79
2023/03/30 11:38:18;;;;;;;;;5.00;4.40;;;;;18.78;48.33;99467.94;5054918;28;47732;-78
2023/03/30 11:40:45;;;;;;;;;5.00;3.60;;;;;18.73;48.04;99493.28;5052418;28;45445;-79
2023/03/30 11:43:16;;;;;;;;;5.80;5.40;;;;;18.63;47.75;99486.81;5053755;28;45419;-79
2023/03/30 11:45:54;;;;;;;;;4.75;4.50;;;;;18.41;48.19;99479.38;5056725;28;45843;-79